sensor_id;sensor_type;location;lat;lon;timestamp;P1;durP1;ratioP1;P2;durP2;ratioP2
41229;SDS011;26964;50.428;19.218;2022-08-11T00:00:48;5.4;;;3.1;;
41229;SDS011;26964;50.428;19.218;2022-08-11T00:05:50;4.9;;;2.5;;
41229;SDS011;26964;50.428;19.218;2022-08-11T00:15:48;5.5;;;3.1;;
41229;SDS011;26964;50.428;19.218;2022-08-11T00:20:48;5.6;;;3.3;;
41229;SDS011;26964;50.428;19.218;2022-08-11T00:25:48;4.2;;;2.7;;
41229;SDS011;26964;50.428;19.218;2022-08-11T00:30:48;4.8;;;2.8;;
41229;SDS011;26964;50.428;19.218;2022-08-11T00:35:48;6.0;;;2.8;;
41229;SDS011;26964;50.428;19.218;2022-08-11T00:50:48;5.2;;;2.6;;
41229;SDS011;26964;50.428;19.218;2022-08-11T01:45:49;4.7;;;2.6;;
41229;SDS011;26964;50.428;19.218;2022-08-11T01:55:49;5.2;;;3.2;;
41229;SDS011;26964;50.428;19.218;2022-08-11T02:00:49;7.5;;;3.3;;
41229;SDS011;26964;50.428;19.218;2022-08-11T02:10:48;4.9;;;3.2;;
41229;SDS011;26964;50.428;19.218;2022-08-11T02:15:49;7.1;;;3.3;;
41229;SDS011;26964;50.428;19.218;2022-08-11T02:20:50;5.5;;;2.9;;
41229;SDS011;26964;50.428;19.218;2022-08-11T02:25:49;5.6;;;3.1;;
41229;SDS011;26964;50.428;19.218;2022-08-11T02:30:50;6.0;;;3.6;;
41229;SDS011;26964;50.428;19.218;2022-08-11T02:36:02;7.3;;;3.6;;
41229;SDS011;26964;50.428;19.218;2022-08-11T02:40:49;7.1;;;3.3;;
41229;SDS011;26964;50.428;19.218;2022-08-11T02:45:50;4.7;;;3.0;;
41229;SDS011;26964;50.428;19.218;2022-08-11T02:50:50;6.3;;;3.3;;
41229;SDS011;26964;50.428;19.218;2022-08-11T03:00:49;5.3;;;3.3;;
41229;SDS011;26964;50.428;19.218;2022-08-11T03:05:50;5.9;;;3.5;;
41229;SDS011;26964;50.428;19.218;2022-08-11T03:10:50;5.9;;;3.7;;
41229;SDS011;26964;50.428;19.218;2022-08-11T03:15:48;6.8;;;3.7;;
41229;SDS011;26964;50.428;19.218;2022-08-11T03:20:49;7.1;;;3.4;;
41229;SDS011;26964;50.428;19.218;2022-08-11T03:25:50;7.8;;;4.1;;
41229;SDS011;26964;50.428;19.218;2022-08-11T03:30:50;6.5;;;3.9;;
41229;SDS011;26964;50.428;19.218;2022-08-11T03:35:49;6.3;;;3.8;;
41229;SDS011;26964;50.428;19.218;2022-08-11T03:45:51;6.1;;;3.8;;
41229;SDS011;26964;50.428;19.218;2022-08-11T04:40:52;10.8;;;4.3;;
41229;SDS011;26964;50.428;19.218;2022-08-11T05:00:50;7.4;;;3.9;;
41229;SDS011;26964;50.428;19.218;2022-08-11T05:15:49;6.2;;;3.6;;
41229;SDS011;26964;50.428;19.218;2022-08-11T05:20:48;5.9;;;3.5;;
41229;SDS011;26964;50.428;19.218;2022-08-11T05:25:47;10.7;;;4.3;;
41229;SDS011;26964;50.428;19.218;2022-08-11T05:30:47;6.2;;;3.5;;
41229;SDS011;26964;50.428;19.218;2022-08-11T05:35:48;7.5;;;4.1;;
41229;SDS011;26964;50.428;19.218;2022-08-11T05:40:48;7.1;;;4.1;;
41229;SDS011;26964;50.428;19.218;2022-08-11T05:50:49;7.0;;;3.8;;
41229;SDS011;26964;50.428;19.218;2022-08-11T05:55:47;9.1;;;3.7;;
41229;SDS011;26964;50.428;19.218;2022-08-11T06:00:47;9.2;;;4.3;;
41229;SDS011;26964;50.428;19.218;2022-08-11T06:05:47;8.0;;;4.3;;
41229;SDS011;26964;50.428;19.218;2022-08-11T06:10:47;10.2;;;4.3;;
41229;SDS011;26964;50.428;19.218;2022-08-11T06:15:48;11.1;;;4.7;;
41229;SDS011;26964;50.428;19.218;2022-08-11T06:20:48;9.8;;;3.8;;
41229;SDS011;26964;50.428;19.218;2022-08-11T06:25:47;8.8;;;4.1;;
41229;SDS011;26964;50.428;19.218;2022-08-11T06:30:47;6.5;;;4.0;;
41229;SDS011;26964;50.428;19.218;2022-08-11T06:35:50;8.0;;;3.5;;
41229;SDS011;26964;50.428;19.218;2022-08-11T06:40:48;7.9;;;3.6;;
41229;SDS011;26964;50.428;19.218;2022-08-11T06:45:49;7.2;;;3.3;;
41229;SDS011;26964;50.428;19.218;2022-08-11T06:50:48;7.2;;;3.6;;
41229;SDS011;26964;50.428;19.218;2022-08-11T06:55:47;6.9;;;3.1;;
41229;SDS011;26964;50.428;19.218;2022-08-11T07:00:47;5.3;;;2.5;;
41229;SDS011;26964;50.428;19.218;2022-08-11T07:05:48;4.9;;;2.5;;
41229;SDS011;26964;50.428;19.218;2022-08-11T07:10:50;3.8;;;2.1;;
41229;SDS011;26964;50.428;19.218;2022-08-11T07:15:47;5.5;;;2.3;;
41229;SDS011;26964;50.428;19.218;2022-08-11T07:20:47;5.7;;;2.3;;
41229;SDS011;26964;50.428;19.218;2022-08-11T07:25:49;3.8;;;2.2;;
41229;SDS011;26964;50.428;19.218;2022-08-11T07:30:47;7.9;;;2.1;;
41229;SDS011;26964;50.428;19.218;2022-08-11T07:35:48;4.0;;;2.2;;
41229;SDS011;26964;50.428;19.218;2022-08-11T07:40:47;6.4;;;2.1;;
41229;SDS011;26964;50.428;19.218;2022-08-11T07:45:47;4.4;;;2.0;;
41229;SDS011;26964;50.428;19.218;2022-08-11T07:50:47;6.0;;;2.3;;
41229;SDS011;26964;50.428;19.218;2022-08-11T07:55:47;5.7;;;1.7;;
41229;SDS011;26964;50.428;19.218;2022-08-11T08:00:48;4.5;;;2.0;;
41229;SDS011;26964;50.428;19.218;2022-08-11T08:05:47;4.6;;;1.9;;
41229;SDS011;26964;50.428;19.218;2022-08-11T08:10:47;3.8;;;2.0;;
41229;SDS011;26964;50.428;19.218;2022-08-11T08:15:47;6.5;;;2.4;;
41229;SDS011;26964;50.428;19.218;2022-08-11T08:20:48;3.6;;;1.6;;
41229;SDS011;26964;50.428;19.218;2022-08-11T08:25:48;3.7;;;1.8;;
41229;SDS011;26964;50.428;19.218;2022-08-11T08:30:48;3.8;;;1.8;;
41229;SDS011;26964;50.428;19.218;2022-08-11T08:35:48;3.7;;;1.8;;
41229;SDS011;26964;50.428;19.218;2022-08-11T08:40:49;4.0;;;1.5;;
41229;SDS011;26964;50.428;19.218;2022-08-11T08:45:47;4.8;;;1.7;;
41229;SDS011;26964;50.428;19.218;2022-08-11T08:50:49;3.5;;;1.7;;
41229;SDS011;26964;50.428;19.218;2022-08-11T08:55:47;4.2;;;1.4;;
41229;SDS011;26964;50.428;19.218;2022-08-11T09:00:48;2.6;;;1.5;;
41229;SDS011;26964;50.428;19.218;2022-08-11T09:05:47;3.4;;;1.3;;
41229;SDS011;26964;50.428;19.218;2022-08-11T09:10:48;8.4;;;1.8;;
41229;SDS011;26964;50.428;19.218;2022-08-11T09:15:47;4.6;;;1.5;;
41229;SDS011;26964;50.428;19.218;2022-08-11T09:20:47;2.9;;;1.6;;
41229;SDS011;26964;50.428;19.218;2022-08-11T09:25:49;3.5;;;1.4;;
41229;SDS011;26964;50.428;19.218;2022-08-11T09:30:49;3.5;;;1.4;;
41229;SDS011;26964;50.428;19.218;2022-08-11T09:35:48;6.3;;;1.4;;
41229;SDS011;26964;50.428;19.218;2022-08-11T09:40:47;2.5;;;1.1;;
41229;SDS011;26964;50.428;19.218;2022-08-11T09:45:48;1.8;;;1.1;;
41229;SDS011;26964;50.428;19.218;2022-08-11T09:50:47;3.8;;;1.0;;
41229;SDS011;26964;50.428;19.218;2022-08-11T09:55:47;3.4;;;1.3;;
41229;SDS011;26964;50.428;19.218;2022-08-11T10:00:47;2.7;;;1.1;;
41229;SDS011;26964;50.428;19.218;2022-08-11T10:05:49;4.6;;;1.2;;
41229;SDS011;26964;50.428;19.218;2022-08-11T10:10:47;2.9;;;1.0;;
41229;SDS011;26964;50.428;19.218;2022-08-11T10:15:47;2.1;;;1.0;;
41229;SDS011;26964;50.428;19.218;2022-08-11T10:20:47;2.7;;;1.3;;
41229;SDS011;26964;50.428;19.218;2022-08-11T10:25:47;2.4;;;1.3;;
41229;SDS011;26964;50.428;19.218;2022-08-11T10:30:48;2.5;;;1.1;;
41229;SDS011;26964;50.428;19.218;2022-08-11T10:35:47;4.5;;;1.3;;
41229;SDS011;26964;50.428;19.218;2022-08-11T10:40:47;3.1;;;1.1;;
41229;SDS011;26964;50.428;19.218;2022-08-11T10:45:47;3.2;;;1.2;;
41229;SDS011;26964;50.428;19.218;2022-08-11T10:50:47;3.0;;;1.0;;
41229;SDS011;26964;50.428;19.218;2022-08-11T10:55:47;4.9;;;1.2;;
41229;SDS011;26964;50.428;19.218;2022-08-11T11:00:47;2.6;;;1.2;;
41229;SDS011;26964;50.428;19.218;2022-08-11T11:05:47;1.3;;;0.8;;
41229;SDS011;26964;50.428;19.218;2022-08-11T11:10:47;2.9;;;0.8;;
41229;SDS011;26964;50.428;19.218;2022-08-11T11:20:47;2.7;;;1.1;;
41229;SDS011;26964;50.428;19.218;2022-08-11T11:30:50;2.1;;;1.1;;
41229;SDS011;26964;50.428;19.218;2022-08-11T11:35:48;5.6;;;1.6;;
41229;SDS011;26964;50.428;19.218;2022-08-11T11:40:47;2.6;;;1.0;;
41229;SDS011;26964;50.428;19.218;2022-08-11T11:45:47;1.9;;;1.0;;
41229;SDS011;26964;50.428;19.218;2022-08-11T11:50:47;3.6;;;1.1;;
41229;SDS011;26964;50.428;19.218;2022-08-11T11:55:47;2.1;;;0.7;;
41229;SDS011;26964;50.428;19.218;2022-08-11T12:00:46;2.4;;;0.8;;
41229;SDS011;26964;50.428;19.218;2022-08-11T12:05:47;2.0;;;1.0;;
41229;SDS011;26964;50.428;19.218;2022-08-11T12:10:48;1.9;;;0.8;;
41229;SDS011;26964;50.428;19.218;2022-08-11T12:15:47;4.0;;;0.7;;
41229;SDS011;26964;50.428;19.218;2022-08-11T12:20:47;1.6;;;1.0;;
41229;SDS011;26964;50.428;19.218;2022-08-11T12:25:48;2.4;;;1.0;;
41229;SDS011;26964;50.428;19.218;2022-08-11T12:30:47;2.3;;;0.9;;
41229;SDS011;26964;50.428;19.218;2022-08-11T12:35:47;2.9;;;1.0;;
41229;SDS011;26964;50.428;19.218;2022-08-11T12:40:47;2.9;;;1.0;;
41229;SDS011;26964;50.428;19.218;2022-08-11T12:45:47;2.6;;;0.9;;
41229;SDS011;26964;50.428;19.218;2022-08-11T12:50:48;0.4;;;0.4;;
41229;SDS011;26964;50.428;19.218;2022-08-11T12:55:47;3.1;;;0.9;;
41229;SDS011;26964;50.428;19.218;2022-08-11T13:00:47;2.0;;;0.9;;
41229;SDS011;26964;50.428;19.218;2022-08-11T13:05:47;1.7;;;0.8;;
41229;SDS011;26964;50.428;19.218;2022-08-11T13:10:47;2.0;;;0.9;;
41229;SDS011;26964;50.428;19.218;2022-08-11T13:15:47;1.1;;;0.9;;
41229;SDS011;26964;50.428;19.218;2022-08-11T13:20:47;1.8;;;0.6;;
41229;SDS011;26964;50.428;19.218;2022-08-11T13:25:47;1.8;;;0.9;;
41229;SDS011;26964;50.428;19.218;2022-08-11T13:30:48;0.8;;;0.6;;
41229;SDS011;26964;50.428;19.218;2022-08-11T13:35:50;2.3;;;0.6;;
41229;SDS011;26964;50.428;19.218;2022-08-11T13:40:49;1.2;;;0.6;;
41229;SDS011;26964;50.428;19.218;2022-08-11T13:45:49;6.5;;;1.3;;
41229;SDS011;26964;50.428;19.218;2022-08-11T13:50:48;8.3;;;1.6;;
41229;SDS011;26964;50.428;19.218;2022-08-11T13:55:48;5.7;;;1.0;;
41229;SDS011;26964;50.428;19.218;2022-08-11T14:00:49;4.4;;;1.3;;
41229;SDS011;26964;50.428;19.218;2022-08-11T14:05:50;7.7;;;1.4;;
41229;SDS011;26964;50.428;19.218;2022-08-11T14:10:48;4.7;;;1.3;;
41229;SDS011;26964;50.428;19.218;2022-08-11T14:15:49;4.8;;;1.4;;
41229;SDS011;26964;50.428;19.218;2022-08-11T14:20:50;3.9;;;1.4;;
41229;SDS011;26964;50.428;19.218;2022-08-11T14:25:48;6.2;;;2.1;;
41229;SDS011;26964;50.428;19.218;2022-08-11T14:30:48;2.8;;;1.3;;
41229;SDS011;26964;50.428;19.218;2022-08-11T14:35:51;4.6;;;1.2;;
41229;SDS011;26964;50.428;19.218;2022-08-11T14:40:48;3.1;;;1.3;;
41229;SDS011;26964;50.428;19.218;2022-08-11T14:45:48;3.6;;;1.6;;
41229;SDS011;26964;50.428;19.218;2022-08-11T14:50:48;3.9;;;1.6;;
41229;SDS011;26964;50.428;19.218;2022-08-11T14:55:49;3.5;;;1.7;;
41229;SDS011;26964;50.428;19.218;2022-08-11T15:00:49;2.2;;;1.3;;
41229;SDS011;26964;50.428;19.218;2022-08-11T15:05:49;4.0;;;1.4;;
41229;SDS011;26964;50.428;19.218;2022-08-11T15:10:49;3.3;;;1.2;;
41229;SDS011;26964;50.428;19.218;2022-08-11T15:15:48;2.4;;;1.2;;
41229;SDS011;26964;50.428;19.218;2022-08-11T15:20:49;4.2;;;1.0;;
41229;SDS011;26964;50.428;19.218;2022-08-11T15:25:49;4.8;;;1.1;;
41229;SDS011;26964;50.428;19.218;2022-08-11T15:30:50;6.0;;;1.4;;
41229;SDS011;26964;50.428;19.218;2022-08-11T15:35:48;1.2;;;0.8;;
41229;SDS011;26964;50.428;19.218;2022-08-11T15:40:48;3.2;;;1.2;;
41229;SDS011;26964;50.428;19.218;2022-08-11T15:45:49;3.9;;;1.4;;
41229;SDS011;26964;50.428;19.218;2022-08-11T15:50:49;3.1;;;1.7;;
41229;SDS011;26964;50.428;19.218;2022-08-11T15:55:48;5.0;;;1.8;;
41229;SDS011;26964;50.428;19.218;2022-08-11T16:00:49;2.8;;;1.5;;
41229;SDS011;26964;50.428;19.218;2022-08-11T16:05:48;2.7;;;1.4;;
41229;SDS011;26964;50.428;19.218;2022-08-11T16:10:48;3.7;;;2.1;;
41229;SDS011;26964;50.428;19.218;2022-08-11T16:15:49;4.7;;;2.1;;
41229;SDS011;26964;50.428;19.218;2022-08-11T16:20:48;3.8;;;2.1;;
41229;SDS011;26964;50.428;19.218;2022-08-11T16:25:48;7.4;;;2.8;;
41229;SDS011;26964;50.428;19.218;2022-08-11T16:30:48;7.0;;;2.3;;
41229;SDS011;26964;50.428;19.218;2022-08-11T16:35:48;11.4;;;3.2;;
41229;SDS011;26964;50.428;19.218;2022-08-11T16:40:50;6.1;;;2.1;;
41229;SDS011;26964;50.428;19.218;2022-08-11T16:45:48;3.8;;;1.7;;
41229;SDS011;26964;50.428;19.218;2022-08-11T16:50:48;2.5;;;1.6;;
41229;SDS011;26964;50.428;19.218;2022-08-11T16:55:48;3.2;;;1.3;;
41229;SDS011;26964;50.428;19.218;2022-08-11T17:00:48;3.4;;;1.7;;
41229;SDS011;26964;50.428;19.218;2022-08-11T17:05:49;3.3;;;1.8;;
41229;SDS011;26964;50.428;19.218;2022-08-11T17:10:49;3.8;;;1.9;;
41229;SDS011;26964;50.428;19.218;2022-08-11T17:15:49;7.5;;;2.0;;
41229;SDS011;26964;50.428;19.218;2022-08-11T17:20:48;3.7;;;2.1;;
41229;SDS011;26964;50.428;19.218;2022-08-11T17:25:49;10.1;;;4.2;;
41229;SDS011;26964;50.428;19.218;2022-08-11T17:30:48;21.7;;;6.0;;
41229;SDS011;26964;50.428;19.218;2022-08-11T17:35:49;5.7;;;2.6;;
41229;SDS011;26964;50.428;19.218;2022-08-11T17:40:50;4.8;;;1.8;;
41229;SDS011;26964;50.428;19.218;2022-08-11T17:45:48;4.1;;;1.9;;
41229;SDS011;26964;50.428;19.218;2022-08-11T17:50:48;5.8;;;2.0;;
41229;SDS011;26964;50.428;19.218;2022-08-11T17:55:48;5.8;;;1.8;;
41229;SDS011;26964;50.428;19.218;2022-08-11T18:00:48;3.5;;;2.0;;
41229;SDS011;26964;50.428;19.218;2022-08-11T18:05:48;4.8;;;2.1;;
41229;SDS011;26964;50.428;19.218;2022-08-11T18:10:48;6.5;;;1.8;;
41229;SDS011;26964;50.428;19.218;2022-08-11T18:15:48;5.4;;;1.8;;
41229;SDS011;26964;50.428;19.218;2022-08-11T18:20:48;6.7;;;2.1;;
41229;SDS011;26964;50.428;19.218;2022-08-11T18:25:49;5.0;;;2.3;;
41229;SDS011;26964;50.428;19.218;2022-08-11T18:30:49;5.9;;;2.9;;
41229;SDS011;26964;50.428;19.218;2022-08-11T18:35:49;8.3;;;3.8;;
41229;SDS011;26964;50.428;19.218;2022-08-11T18:40:49;11.1;;;5.6;;
41229;SDS011;26964;50.428;19.218;2022-08-11T18:45:51;10.8;;;5.9;;
41229;SDS011;26964;50.428;19.218;2022-08-11T18:50:49;6.9;;;4.2;;
41229;SDS011;26964;50.428;19.218;2022-08-11T18:55:48;5.6;;;2.7;;
41229;SDS011;26964;50.428;19.218;2022-08-11T19:00:48;4.6;;;2.7;;
41229;SDS011;26964;50.428;19.218;2022-08-11T19:05:48;4.8;;;3.0;;
41229;SDS011;26964;50.428;19.218;2022-08-11T19:10:48;8.1;;;3.1;;
41229;SDS011;26964;50.428;19.218;2022-08-11T19:15:48;5.3;;;2.9;;
41229;SDS011;26964;50.428;19.218;2022-08-11T19:20:50;4.5;;;2.5;;
41229;SDS011;26964;50.428;19.218;2022-08-11T19:25:49;4.1;;;2.4;;
41229;SDS011;26964;50.428;19.218;2022-08-11T19:30:49;7.4;;;3.2;;
41229;SDS011;26964;50.428;19.218;2022-08-11T19:35:48;5.2;;;2.9;;
41229;SDS011;26964;50.428;19.218;2022-08-11T19:40:49;5.5;;;3.0;;
41229;SDS011;26964;50.428;19.218;2022-08-11T19:45:48;5.7;;;3.4;;
41229;SDS011;26964;50.428;19.218;2022-08-11T19:50:48;5.8;;;3.5;;
41229;SDS011;26964;50.428;19.218;2022-08-11T19:55:49;6.6;;;3.4;;
41229;SDS011;26964;50.428;19.218;2022-08-11T20:00:48;8.5;;;3.8;;
41229;SDS011;26964;50.428;19.218;2022-08-11T20:05:48;8.0;;;3.6;;
41229;SDS011;26964;50.428;19.218;2022-08-11T20:10:48;5.9;;;3.7;;
41229;SDS011;26964;50.428;19.218;2022-08-11T20:15:48;6.7;;;3.9;;
41229;SDS011;26964;50.428;19.218;2022-08-11T20:20:48;9.3;;;4.5;;
41229;SDS011;26964;50.428;19.218;2022-08-11T20:25:48;6.9;;;4.1;;
41229;SDS011;26964;50.428;19.218;2022-08-11T20:30:48;7.7;;;3.6;;
41229;SDS011;26964;50.428;19.218;2022-08-11T20:35:48;6.9;;;4.0;;
41229;SDS011;26964;50.428;19.218;2022-08-11T20:40:48;7.2;;;4.3;;
41229;SDS011;26964;50.428;19.218;2022-08-11T20:45:48;14.4;;;8.9;;
41229;SDS011;26964;50.428;19.218;2022-08-11T20:50:48;18.0;;;11.0;;
41229;SDS011;26964;50.428;19.218;2022-08-11T20:55:48;10.5;;;4.5;;
41229;SDS011;26964;50.428;19.218;2022-08-11T21:00:49;6.3;;;3.6;;
41229;SDS011;26964;50.428;19.218;2022-08-11T21:05:48;10.0;;;4.8;;
41229;SDS011;26964;50.428;19.218;2022-08-11T21:10:48;9.3;;;4.8;;
41229;SDS011;26964;50.428;19.218;2022-08-11T21:15:48;6.7;;;4.1;;
41229;SDS011;26964;50.428;19.218;2022-08-11T21:20:48;7.7;;;4.2;;
41229;SDS011;26964;50.428;19.218;2022-08-11T21:25:48;6.7;;;3.8;;
41229;SDS011;26964;50.428;19.218;2022-08-11T21:30:48;8.8;;;3.9;;
41229;SDS011;26964;50.428;19.218;2022-08-11T21:35:48;7.6;;;3.3;;
41229;SDS011;26964;50.428;19.218;2022-08-11T21:40:48;6.7;;;4.4;;
41229;SDS011;26964;50.428;19.218;2022-08-11T21:45:52;7.9;;;4.2;;
41229;SDS011;26964;50.428;19.218;2022-08-11T21:50:48;9.1;;;4.8;;
41229;SDS011;26964;50.428;19.218;2022-08-11T21:55:48;6.6;;;3.7;;
41229;SDS011;26964;50.428;19.218;2022-08-11T22:00:48;7.0;;;4.0;;
41229;SDS011;26964;50.428;19.218;2022-08-11T22:05:48;7.8;;;5.3;;
41229;SDS011;26964;50.428;19.218;2022-08-11T22:10:48;7.8;;;4.4;;
41229;SDS011;26964;50.428;19.218;2022-08-11T22:15:48;12.1;;;4.4;;
41229;SDS011;26964;50.428;19.218;2022-08-11T22:20:48;5.1;;;3.3;;
41229;SDS011;26964;50.428;19.218;2022-08-11T22:25:48;5.2;;;3.5;;
41229;SDS011;26964;50.428;19.218;2022-08-11T22:30:48;8.4;;;4.3;;
41229;SDS011;26964;50.428;19.218;2022-08-11T22:35:48;6.0;;;3.3;;
41229;SDS011;26964;50.428;19.218;2022-08-11T22:40:49;7.0;;;3.8;;
41229;SDS011;26964;50.428;19.218;2022-08-11T22:45:48;7.9;;;4.1;;
41229;SDS011;26964;50.428;19.218;2022-08-11T22:50:48;6.3;;;3.9;;
41229;SDS011;26964;50.428;19.218;2022-08-11T22:55:48;5.3;;;3.7;;
41229;SDS011;26964;50.428;19.218;2022-08-11T23:00:48;7.5;;;4.0;;
41229;SDS011;26964;50.428;19.218;2022-08-11T23:05:48;6.2;;;4.1;;
41229;SDS011;26964;50.428;19.218;2022-08-11T23:10:48;7.2;;;3.9;;
41229;SDS011;26964;50.428;19.218;2022-08-11T23:15:48;5.3;;;3.7;;
41229;SDS011;26964;50.428;19.218;2022-08-11T23:20:48;6.1;;;3.7;;
41229;SDS011;26964;50.428;19.218;2022-08-11T23:25:48;7.3;;;3.8;;
41229;SDS011;26964;50.428;19.218;2022-08-11T23:30:48;7.6;;;3.8;;
41229;SDS011;26964;50.428;19.218;2022-08-11T23:35:49;6.0;;;4.0;;
41229;SDS011;26964;50.428;19.218;2022-08-11T23:40:48;4.9;;;3.3;;
41229;SDS011;26964;50.428;19.218;2022-08-11T23:45:48;5.0;;;3.2;;
41229;SDS011;26964;50.428;19.218;2022-08-11T23:50:47;6.7;;;3.9;;
41229;SDS011;26964;50.428;19.218;2022-08-11T23:55:48;6.3;;;4.0;;
